Impacts METAR Board INFO
IDs:

KSFO - San Francisco Intl, CA, US

Updated at: 1045 UTC 18 Dec 2017
Potential Impact None Slight Moderate High
Time17/22Z 17/23Z 18/00Z 18/01Z 18/02Z 18/03Z 18/04Z 18/05Z 18/06Z 18/07Z 18/08Z 18/09Z 18/10Z
VIS10 10 10 10 10 10 10 10 10 10 10 10 10
CIG-- -- -- -- 200 200 -- -- -- -- -- -- --
CoverFEWFEWFEWSCTBKNBKNSCTSCTSCTCLRCLRCLRCLR
FltCatVFRVFRVFRVFRVFRVFRVFRVFRVFRVFRVFRVFRVFR
WX--------------------------
WDir0320350290280002903201902000180
WSpd0 6 3 5 6 0 0 8 6 4 3 0 3
WGst-- -- -- -- -- -- -- -- -- -- -- -- --
Raw hourly METARs
KSFO 172156Z 00000KT 10SM FEW200 17/M05 A3001 RMK AO2 SLP161 T01721050
KSFO 172256Z 32006KT 10SM FEW200 17/M04 A3001 RMK AO2 SLP160 T01671044
KSFO 172356Z 35003KT 10SM FEW200 16/M01 A3002 RMK AO2 SLP165 T01611006 10172 20139 55000
KSFO 180056Z 29005KT 10SM SCT200 14/M01 A3003 RMK AO2 SLP169 T01441006
KSFO 180156Z 28006KT 10SM BKN200 13/M01 A3005 RMK AO2 SLP176 T01331011
KSFO 180256Z 00000KT 10SM BKN200 12/M01 A3007 RMK AO2 SLP182 T01171006 53017
KSFO 180356Z 00000KT 10SM SCT200 12/M01 A3008 RMK AO2 SLP185 T01171011
KSFO 180456Z 29008KT 10SM SCT200 12/M02 A3009 RMK AO2 SLP188 T01171022
KSFO 180556Z 32006KT 10SM SCT200 11/02 A3010 RMK AO2 SLP191 T01110022 10167 20111 53009
KSFO 180656Z 19004KT 10SM CLR 09/02 A3011 RMK AO2 SLP197 T00940017
KSFO 180756Z 20003KT 10SM CLR 09/01 A3012 RMK AO2 SLP199 T00890011 401720089
KSFO 180856Z 00000KT 10SM CLR 09/01 A3013 RMK AO2 SLP202 T00940011 51011
KSFO 180956Z 18003KT 10SM CLR 08/02 A3014 RMK AO2 SLP206 T00830022